sensor_id;sensor_type;location;lat;lon;timestamp;P1;durP1;ratioP1;P2;durP2;ratioP2
14890;SDS011;7537;48.014;11.590;2023-08-06T00:00:54;4.26;;;3.92;;
14890;SDS011;7537;48.014;11.590;2023-08-06T00:06:22;6.04;;;5.18;;
14890;SDS011;7537;48.014;11.590;2023-08-06T00:11:51;4.14;;;4.31;;
14890;SDS011;7537;48.014;11.590;2023-08-06T00:17:18;4.51;;;4.63;;
14890;SDS011;7537;48.014;11.590;2023-08-06T00:22:54;4.97;;;5.04;;
14890;SDS011;7537;48.014;11.590;2023-08-06T00:28:23;4.68;;;4.34;;
14890;SDS011;7537;48.014;11.590;2023-08-06T00:33:50;4.38;;;4.35;;
14890;SDS011;7537;48.014;11.590;2023-08-06T00:39:18;4.67;;;4.58;;
14890;SDS011;7537;48.014;11.590;2023-08-06T00:44:46;5.37;;;4.60;;
14890;SDS011;7537;48.014;11.590;2023-08-06T00:50:14;4.53;;;4.56;;
14890;SDS011;7537;48.014;11.590;2023-08-06T00:55:43;4.58;;;4.61;;
14890;SDS011;7537;48.014;11.590;2023-08-06T01:01:11;4.96;;;4.84;;
14890;SDS011;7537;48.014;11.590;2023-08-06T01:06:43;5.24;;;5.28;;
14890;SDS011;7537;48.014;11.590;2023-08-06T01:12:20;4.91;;;5.16;;
14890;SDS011;7537;48.014;11.590;2023-08-06T01:17:52;10.04;;;5.39;;
14890;SDS011;7537;48.014;11.590;2023-08-06T01:23:23;5.86;;;5.51;;
14890;SDS011;7537;48.014;11.590;2023-08-06T01:28:54;5.51;;;5.51;;
14890;SDS011;7537;48.014;11.590;2023-08-06T01:34:23;5.01;;;5.15;;
14890;SDS011;7537;48.014;11.590;2023-08-06T01:39:51;5.28;;;4.73;;
14890;SDS011;7537;48.014;11.590;2023-08-06T01:45:18;5.38;;;5.42;;
14890;SDS011;7537;48.014;11.590;2023-08-06T01:50:48;6.31;;;5.09;;
14890;SDS011;7537;48.014;11.590;2023-08-06T01:56:16;4.97;;;4.55;;
14890;SDS011;7537;48.014;11.590;2023-08-06T02:01:43;4.16;;;4.16;;
14890;SDS011;7537;48.014;11.590;2023-08-06T02:07:10;3.59;;;3.67;;
14890;SDS011;7537;48.014;11.590;2023-08-06T02:12:38;3.78;;;3.51;;
14890;SDS011;7537;48.014;11.590;2023-08-06T02:18:05;3.71;;;3.85;;
14890;SDS011;7537;48.014;11.590;2023-08-06T02:23:36;4.16;;;3.93;;
14890;SDS011;7537;48.014;11.590;2023-08-06T02:29:03;6.12;;;3.74;;
14890;SDS011;7537;48.014;11.590;2023-08-06T02:34:31;3.93;;;3.62;;
14890;SDS011;7537;48.014;11.590;2023-08-06T02:39:58;5.89;;;4.33;;
14890;SDS011;7537;48.014;11.590;2023-08-06T02:45:31;3.59;;;3.38;;
14890;SDS011;7537;48.014;11.590;2023-08-06T02:50:59;3.29;;;3.43;;
14890;SDS011;7537;48.014;11.590;2023-08-06T02:56:26;3.93;;;3.15;;
14890;SDS011;7537;48.014;11.590;2023-08-06T03:01:54;9.04;;;3.26;;
14890;SDS011;7537;48.014;11.590;2023-08-06T03:07:21;4.93;;;3.56;;
14890;SDS011;7537;48.014;11.590;2023-08-06T03:12:49;3.89;;;3.48;;
14890;SDS011;7537;48.014;11.590;2023-08-06T03:18:17;3.34;;;3.42;;
14890;SDS011;7537;48.014;11.590;2023-08-06T03:23:48;6.05;;;3.32;;
14890;SDS011;7537;48.014;11.590;2023-08-06T03:29:16;4.35;;;3.44;;
14890;SDS011;7537;48.014;11.590;2023-08-06T03:34:43;3.10;;;3.26;;
14890;SDS011;7537;48.014;11.590;2023-08-06T03:40:11;2.52;;;2.65;;
14890;SDS011;7537;48.014;11.590;2023-08-06T03:45:39;3.12;;;3.25;;
14890;SDS011;7537;48.014;11.590;2023-08-06T03:51:07;3.37;;;3.44;;
14890;SDS011;7537;48.014;11.590;2023-08-06T03:56:35;2.94;;;3.02;;
14890;SDS011;7537;48.014;11.590;2023-08-06T04:02:03;2.80;;;2.92;;
14890;SDS011;7537;48.014;11.590;2023-08-06T04:07:30;2.98;;;2.86;;
14890;SDS011;7537;48.014;11.590;2023-08-06T04:13:01;2.47;;;2.64;;
14890;SDS011;7537;48.014;11.590;2023-08-06T04:18:28;2.64;;;2.74;;
14890;SDS011;7537;48.014;11.590;2023-08-06T04:24:00;1.43;;;1.56;;
14890;SDS011;7537;48.014;11.590;2023-08-06T04:29:28;2.49;;;2.62;;
14890;SDS011;7537;48.014;11.590;2023-08-06T04:34:56;2.66;;;2.67;;
14890;SDS011;7537;48.014;11.590;2023-08-06T04:40:24;5.03;;;2.91;;
14890;SDS011;7537;48.014;11.590;2023-08-06T04:45:53;2.71;;;2.73;;
14890;SDS011;7537;48.014;11.590;2023-08-06T04:51:21;3.43;;;2.74;;
14890;SDS011;7537;48.014;11.590;2023-08-06T04:56:48;1.77;;;1.86;;
14890;SDS011;7537;48.014;11.590;2023-08-06T05:02:20;2.74;;;2.23;;
14890;SDS011;7537;48.014;11.590;2023-08-06T05:07:50;2.57;;;2.64;;
14890;SDS011;7537;48.014;11.590;2023-08-06T05:13:17;7.92;;;2.01;;
14890;SDS011;7537;48.014;11.590;2023-08-06T05:18:44;2.24;;;2.36;;
14890;SDS011;7537;48.014;11.590;2023-08-06T05:24:15;2.47;;;2.27;;
14890;SDS011;7537;48.014;11.590;2023-08-06T05:29:48;2.54;;;2.60;;
14890;SDS011;7537;48.014;11.590;2023-08-06T05:35:15;2.20;;;2.11;;
14890;SDS011;7537;48.014;11.590;2023-08-06T05:40:42;2.08;;;2.21;;
14890;SDS011;7537;48.014;11.590;2023-08-06T05:46:10;4.28;;;1.96;;
14890;SDS011;7537;48.014;11.590;2023-08-06T05:51:40;5.09;;;2.25;;
14890;SDS011;7537;48.014;11.590;2023-08-06T05:57:08;1.60;;;1.67;;
14890;SDS011;7537;48.014;11.590;2023-08-06T06:02:35;1.77;;;1.76;;
14890;SDS011;7537;48.014;11.590;2023-08-06T06:08:03;4.23;;;2.21;;
14890;SDS011;7537;48.014;11.590;2023-08-06T06:13:30;4.76;;;1.95;;
14890;SDS011;7537;48.014;11.590;2023-08-06T06:18:58;1.77;;;1.86;;
14890;SDS011;7537;48.014;11.590;2023-08-06T06:24:28;1.84;;;1.95;;
14890;SDS011;7537;48.014;11.590;2023-08-06T06:29:56;1.57;;;1.61;;
14890;SDS011;7537;48.014;11.590;2023-08-06T06:35:23;1.73;;;1.74;;
14890;SDS011;7537;48.014;11.590;2023-08-06T06:40:54;2.34;;;1.92;;
14890;SDS011;7537;48.014;11.590;2023-08-06T06:46:22;1.68;;;1.78;;
14890;SDS011;7537;48.014;11.590;2023-08-06T06:51:49;2.16;;;0.86;;
14890;SDS011;7537;48.014;11.590;2023-08-06T06:57:24;0.81;;;0.90;;
14890;SDS011;7537;48.014;11.590;2023-08-06T07:02:51;1.18;;;1.23;;
14890;SDS011;7537;48.014;11.590;2023-08-06T07:08:19;3.32;;;1.38;;
14890;SDS011;7537;48.014;11.590;2023-08-06T07:13:46;0.72;;;0.81;;
14890;SDS011;7537;48.014;11.590;2023-08-06T07:19:13;0.83;;;0.93;;
14890;SDS011;7537;48.014;11.590;2023-08-06T07:24:49;1.33;;;0.87;;
14890;SDS011;7537;48.014;11.590;2023-08-06T07:30:17;1.11;;;1.12;;
14890;SDS011;7537;48.014;11.590;2023-08-06T07:35:44;2.04;;;1.53;;
14890;SDS011;7537;48.014;11.590;2023-08-06T07:41:11;1.10;;;0.87;;
14890;SDS011;7537;48.014;11.590;2023-08-06T07:46:42;2.06;;;1.20;;
14890;SDS011;7537;48.014;11.590;2023-08-06T07:52:09;1.56;;;1.41;;
14890;SDS011;7537;48.014;11.590;2023-08-06T07:57:37;1.01;;;1.06;;
14890;SDS011;7537;48.014;11.590;2023-08-06T08:03:04;2.41;;;1.07;;
14890;SDS011;7537;48.014;11.590;2023-08-06T08:08:32;1.72;;;0.82;;
14890;SDS011;7537;48.014;11.590;2023-08-06T08:14:00;1.58;;;1.22;;
14890;SDS011;7537;48.014;11.590;2023-08-06T08:19:44;1.59;;;1.09;;
14890;SDS011;7537;48.014;11.590;2023-08-06T08:25:16;3.11;;;0.91;;
14890;SDS011;7537;48.014;11.590;2023-08-06T08:30:47;1.41;;;0.98;;
14890;SDS011;7537;48.014;11.590;2023-08-06T08:36:14;1.40;;;0.84;;
14890;SDS011;7537;48.014;11.590;2023-08-06T08:41:42;0.51;;;0.56;;
14890;SDS011;7537;48.014;11.590;2023-08-06T08:47:09;2.66;;;0.81;;
14890;SDS011;7537;48.014;11.590;2023-08-06T08:52:38;4.92;;;0.56;;
14890;SDS011;7537;48.014;11.590;2023-08-06T08:58:07;1.08;;;0.84;;
14890;SDS011;7537;48.014;11.590;2023-08-06T09:03:34;0.93;;;0.22;;
14890;SDS011;7537;48.014;11.590;2023-08-06T09:09:04;0.82;;;0.44;;
14890;SDS011;7537;48.014;11.590;2023-08-06T09:14:33;0.19;;;0.16;;
14890;SDS011;7537;48.014;11.590;2023-08-06T09:20:09;0.38;;;0.23;;
14890;SDS011;7537;48.014;11.590;2023-08-06T09:25:40;0.78;;;0.46;;
14890;SDS011;7537;48.014;11.590;2023-08-06T09:31:07;0.26;;;0.21;;
14890;SDS011;7537;48.014;11.590;2023-08-06T09:36:35;0.35;;;0.36;;
14890;SDS011;7537;48.014;11.590;2023-08-06T09:42:06;0.36;;;0.09;;
14890;SDS011;7537;48.014;11.590;2023-08-06T09:47:34;0.11;;;0.11;;
14890;SDS011;7537;48.014;11.590;2023-08-06T09:53:01;0.21;;;0.14;;
14890;SDS011;7537;48.014;11.590;2023-08-06T09:58:29;0.22;;;0.25;;
14890;SDS011;7537;48.014;11.590;2023-08-06T10:03:58;1.51;;;0.16;;
14890;SDS011;7537;48.014;11.590;2023-08-06T10:09:26;0.14;;;0.16;;
14890;SDS011;7537;48.014;11.590;2023-08-06T10:14:54;2.72;;;0.27;;
14890;SDS011;7537;48.014;11.590;2023-08-06T10:20:22;0.84;;;0.24;;
14890;SDS011;7537;48.014;11.590;2023-08-06T10:25:56;0.34;;;0.16;;
14890;SDS011;7537;48.014;11.590;2023-08-06T10:37:10;0.43;;;0.29;;
14890;SDS011;7537;48.014;11.590;2023-08-06T10:42:40;10.61;;;0.64;;
14890;SDS011;7537;48.014;11.590;2023-08-06T10:48:08;0.06;;;0.09;;
14890;SDS011;7537;48.014;11.590;2023-08-06T10:53:36;1.77;;;0.06;;
14890;SDS011;7537;48.014;11.590;2023-08-06T10:59:03;0.30;;;0.01;;
14890;SDS011;7537;48.014;11.590;2023-08-06T11:04:31;1.06;;;0.06;;
14890;SDS011;7537;48.014;11.590;2023-08-06T11:10:02;0.06;;;0.06;;
14890;SDS011;7537;48.014;11.590;2023-08-06T11:15:30;0.16;;;0.19;;
14890;SDS011;7537;48.014;11.590;2023-08-06T11:20:59;0.07;;;0.07;;
14890;SDS011;7537;48.014;11.590;2023-08-06T11:26:34;0.08;;;0.03;;
14890;SDS011;7537;48.014;11.590;2023-08-06T11:32:04;0.03;;;0.03;;
14890;SDS011;7537;48.014;11.590;2023-08-06T11:37:32;0.08;;;0.09;;
14890;SDS011;7537;48.014;11.590;2023-08-06T11:43:00;0.00;;;0.01;;
14890;SDS011;7537;48.014;11.590;2023-08-06T11:48:29;0.22;;;0.14;;
14890;SDS011;7537;48.014;11.590;2023-08-06T11:54:02;0.02;;;0.03;;
14890;SDS011;7537;48.014;11.590;2023-08-06T11:59:30;0.00;;;0.00;;
14890;SDS011;7537;48.014;11.590;2023-08-06T12:05:00;0.71;;;0.09;;
14890;SDS011;7537;48.014;11.590;2023-08-06T12:10:30;0.21;;;0.22;;
14890;SDS011;7537;48.014;11.590;2023-08-06T12:15:59;0.17;;;0.02;;
14890;SDS011;7537;48.014;11.590;2023-08-06T12:21:27;0.16;;;0.08;;
14890;SDS011;7537;48.014;11.590;2023-08-06T12:26:59;3.67;;;0.29;;
14890;SDS011;7537;48.014;11.590;2023-08-06T12:32:28;0.13;;;0.14;;
14890;SDS011;7537;48.014;11.590;2023-08-06T12:37:56;3.18;;;0.13;;
14890;SDS011;7537;48.014;11.590;2023-08-06T12:43:24;0.27;;;0.11;;
14890;SDS011;7537;48.014;11.590;2023-08-06T12:48:52;1.29;;;0.04;;
14890;SDS011;7537;48.014;11.590;2023-08-06T12:54:20;0.05;;;0.04;;
14890;SDS011;7537;48.014;11.590;2023-08-06T12:59:48;0.01;;;0.01;;
14890;SDS011;7537;48.014;11.590;2023-08-06T13:05:15;0.39;;;0.41;;
14890;SDS011;7537;48.014;11.590;2023-08-06T13:10:43;0.23;;;0.11;;
14890;SDS011;7537;48.014;11.590;2023-08-06T13:16:11;0.88;;;0.06;;
14890;SDS011;7537;48.014;11.590;2023-08-06T13:21:58;3.46;;;0.48;;
14890;SDS011;7537;48.014;11.590;2023-08-06T13:27:30;0.31;;;0.16;;
14890;SDS011;7537;48.014;11.590;2023-08-06T13:32:57;1.74;;;0.41;;
14890;SDS011;7537;48.014;11.590;2023-08-06T13:38:26;0.19;;;0.13;;
14890;SDS011;7537;48.014;11.590;2023-08-06T13:43:53;0.09;;;0.04;;
14890;SDS011;7537;48.014;11.590;2023-08-06T13:49:22;0.05;;;0.06;;
14890;SDS011;7537;48.014;11.590;2023-08-06T13:54:50;0.04;;;0.06;;
14890;SDS011;7537;48.014;11.590;2023-08-06T14:00:19;0.23;;;0.24;;
14890;SDS011;7537;48.014;11.590;2023-08-06T14:05:48;0.03;;;0.04;;
14890;SDS011;7537;48.014;11.590;2023-08-06T14:11:16;0.45;;;0.05;;
14890;SDS011;7537;48.014;11.590;2023-08-06T14:16:45;0.16;;;0.09;;
14890;SDS011;7537;48.014;11.590;2023-08-06T14:22:14;0.11;;;0.13;;
14890;SDS011;7537;48.014;11.590;2023-08-06T14:27:45;0.91;;;0.09;;
14890;SDS011;7537;48.014;11.590;2023-08-06T14:33:14;0.54;;;0.11;;
14890;SDS011;7537;48.014;11.590;2023-08-06T14:38:42;1.27;;;0.18;;
14890;SDS011;7537;48.014;11.590;2023-08-06T14:44:10;0.13;;;0.14;;
14890;SDS011;7537;48.014;11.590;2023-08-06T14:49:38;0.09;;;0.11;;
14890;SDS011;7537;48.014;11.590;2023-08-06T14:55:06;1.18;;;0.34;;
14890;SDS011;7537;48.014;11.590;2023-08-06T15:00:44;1.91;;;0.31;;
14890;SDS011;7537;48.014;11.590;2023-08-06T15:06:11;0.34;;;0.26;;
14890;SDS011;7537;48.014;11.590;2023-08-06T15:11:39;0.81;;;0.29;;
14890;SDS011;7537;48.014;11.590;2023-08-06T15:17:07;2.46;;;0.33;;
14890;SDS011;7537;48.014;11.590;2023-08-06T15:22:35;0.11;;;0.13;;
14890;SDS011;7537;48.014;11.590;2023-08-06T15:28:06;0.41;;;0.22;;
14890;SDS011;7537;48.014;11.590;2023-08-06T15:33:33;0.24;;;0.18;;
14890;SDS011;7537;48.014;11.590;2023-08-06T15:39:02;0.12;;;0.06;;
14890;SDS011;7537;48.014;11.590;2023-08-06T15:44:31;0.27;;;0.23;;
14890;SDS011;7537;48.014;11.590;2023-08-06T15:49:58;0.98;;;0.35;;
14890;SDS011;7537;48.014;11.590;2023-08-06T15:55:26;1.04;;;0.83;;
14890;SDS011;7537;48.014;11.590;2023-08-06T16:00:54;0.60;;;0.39;;
14890;SDS011;7537;48.014;11.590;2023-08-06T16:06:24;0.46;;;0.43;;
14890;SDS011;7537;48.014;11.590;2023-08-06T16:11:55;0.12;;;0.15;;
14890;SDS011;7537;48.014;11.590;2023-08-06T16:17:23;0.09;;;0.08;;
14890;SDS011;7537;48.014;11.590;2023-08-06T16:22:48;0.25;;;0.28;;
14890;SDS011;7537;48.014;11.590;2023-08-06T16:28:59;0.19;;;0.14;;
14890;SDS011;7537;48.014;11.590;2023-08-06T16:34:42;0.14;;;0.16;;
14890;SDS011;7537;48.014;11.590;2023-08-06T16:40:10;0.19;;;0.22;;
14890;SDS011;7537;48.014;11.590;2023-08-06T16:45:37;4.46;;;0.30;;
14890;SDS011;7537;48.014;11.590;2023-08-06T16:51:06;0.22;;;0.24;;
14890;SDS011;7537;48.014;11.590;2023-08-06T16:56:33;0.27;;;0.29;;
14890;SDS011;7537;48.014;11.590;2023-08-06T17:02:04;0.31;;;0.32;;
14890;SDS011;7537;48.014;11.590;2023-08-06T17:07:32;0.37;;;0.29;;
14890;SDS011;7537;48.014;11.590;2023-08-06T17:13:00;0.14;;;0.15;;
14890;SDS011;7537;48.014;11.590;2023-08-06T17:18:28;0.38;;;0.41;;
14890;SDS011;7537;48.014;11.590;2023-08-06T17:23:55;0.08;;;0.11;;
14890;SDS011;7537;48.014;11.590;2023-08-06T17:29:34;0.08;;;0.08;;
14890;SDS011;7537;48.014;11.590;2023-08-06T17:35:01;0.66;;;0.54;;
14890;SDS011;7537;48.014;11.590;2023-08-06T17:40:30;0.31;;;0.36;;
14890;SDS011;7537;48.014;11.590;2023-08-06T17:45:58;0.14;;;0.16;;
14890;SDS011;7537;48.014;11.590;2023-08-06T17:51:26;0.46;;;0.51;;
14890;SDS011;7537;48.014;11.590;2023-08-06T17:56:54;0.23;;;0.27;;
14890;SDS011;7537;48.014;11.590;2023-08-06T18:02:22;0.26;;;0.29;;
14890;SDS011;7537;48.014;11.590;2023-08-06T18:07:49;0.38;;;0.42;;
14890;SDS011;7537;48.014;11.590;2023-08-06T18:13:20;0.99;;;0.51;;
14890;SDS011;7537;48.014;11.590;2023-08-06T18:18:48;0.54;;;0.48;;
14890;SDS011;7537;48.014;11.590;2023-08-06T18:24:16;0.38;;;0.42;;
14890;SDS011;7537;48.014;11.590;2023-08-06T18:29:47;0.92;;;0.94;;
14890;SDS011;7537;48.014;11.590;2023-08-06T18:35:15;0.63;;;0.72;;
14890;SDS011;7537;48.014;11.590;2023-08-06T18:40:43;0.86;;;0.75;;
14890;SDS011;7537;48.014;11.590;2023-08-06T18:46:10;0.68;;;0.78;;
14890;SDS011;7537;48.014;11.590;2023-08-06T18:51:38;0.53;;;0.57;;
14890;SDS011;7537;48.014;11.590;2023-08-06T18:57:07;3.33;;;0.78;;
14890;SDS011;7537;48.014;11.590;2023-08-06T19:02:35;0.62;;;0.71;;
14890;SDS011;7537;48.014;11.590;2023-08-06T19:08:03;0.74;;;0.81;;
14890;SDS011;7537;48.014;11.590;2023-08-06T19:13:34;0.74;;;0.83;;
14890;SDS011;7537;48.014;11.590;2023-08-06T19:19:02;0.86;;;0.88;;
14890;SDS011;7537;48.014;11.590;2023-08-06T19:24:29;0.59;;;0.66;;
14890;SDS011;7537;48.014;11.590;2023-08-06T19:30:01;1.03;;;0.91;;
14890;SDS011;7537;48.014;11.590;2023-08-06T19:35:35;4.66;;;0.84;;
14890;SDS011;7537;48.014;11.590;2023-08-06T19:41:04;0.62;;;0.70;;
14890;SDS011;7537;48.014;11.590;2023-08-06T19:46:32;0.79;;;0.90;;
14890;SDS011;7537;48.014;11.590;2023-08-06T19:52:00;1.21;;;0.71;;
14890;SDS011;7537;48.014;11.590;2023-08-06T19:57:29;0.48;;;0.54;;
14890;SDS011;7537;48.014;11.590;2023-08-06T20:02:57;0.65;;;0.68;;
14890;SDS011;7537;48.014;11.590;2023-08-06T20:08:25;0.63;;;0.69;;
14890;SDS011;7537;48.014;11.590;2023-08-06T20:13:56;2.04;;;0.89;;
14890;SDS011;7537;48.014;11.590;2023-08-06T20:19:25;3.26;;;0.64;;
14890;SDS011;7537;48.014;11.590;2023-08-06T20:24:53;0.82;;;0.90;;
14890;SDS011;7537;48.014;11.590;2023-08-06T20:30:24;1.04;;;0.82;;
14890;SDS011;7537;48.014;11.590;2023-08-06T20:35:53;0.79;;;0.89;;
14890;SDS011;7537;48.014;11.590;2023-08-06T20:41:20;1.77;;;0.64;;
14890;SDS011;7537;48.014;11.590;2023-08-06T20:46:48;0.78;;;0.40;;
14890;SDS011;7537;48.014;11.590;2023-08-06T20:52:16;0.29;;;0.28;;
14890;SDS011;7537;48.014;11.590;2023-08-06T20:57:44;0.88;;;0.72;;
14890;SDS011;7537;48.014;11.590;2023-08-06T21:03:20;2.93;;;0.85;;
14890;SDS011;7537;48.014;11.590;2023-08-06T21:08:48;1.58;;;0.73;;
14890;SDS011;7537;48.014;11.590;2023-08-06T21:14:17;0.63;;;0.63;;
14890;SDS011;7537;48.014;11.590;2023-08-06T21:19:45;1.12;;;0.86;;
14890;SDS011;7537;48.014;11.590;2023-08-06T21:25:13;2.86;;;0.76;;
14890;SDS011;7537;48.014;11.590;2023-08-06T21:30:44;1.04;;;0.91;;
14890;SDS011;7537;48.014;11.590;2023-08-06T21:36:12;0.84;;;0.93;;
14890;SDS011;7537;48.014;11.590;2023-08-06T21:41:45;1.36;;;1.12;;
14890;SDS011;7537;48.014;11.590;2023-08-06T21:47:14;2.17;;;1.08;;
14890;SDS011;7537;48.014;11.590;2023-08-06T21:52:41;0.63;;;0.69;;
14890;SDS011;7537;48.014;11.590;2023-08-06T21:58:09;1.24;;;0.94;;
14890;SDS011;7537;48.014;11.590;2023-08-06T22:03:37;0.96;;;0.91;;
14890;SDS011;7537;48.014;11.590;2023-08-06T22:09:04;1.47;;;1.05;;
14890;SDS011;7537;48.014;11.590;2023-08-06T22:14:32;1.61;;;0.93;;
14890;SDS011;7537;48.014;11.590;2023-08-06T22:20:00;1.28;;;0.92;;
14890;SDS011;7537;48.014;11.590;2023-08-06T22:25:28;0.51;;;0.56;;
14890;SDS011;7537;48.014;11.590;2023-08-06T22:31:11;0.59;;;0.64;;
14890;SDS011;7537;48.014;11.590;2023-08-06T22:36:42;1.06;;;1.14;;
14890;SDS011;7537;48.014;11.590;2023-08-06T22:42:15;2.18;;;1.30;;
14890;SDS011;7537;48.014;11.590;2023-08-06T22:47:43;3.42;;;1.00;;
14890;SDS011;7537;48.014;11.590;2023-08-06T22:53:11;0.67;;;0.74;;
14890;SDS011;7537;48.014;11.590;2023-08-06T22:58:38;2.29;;;1.32;;
14890;SDS011;7537;48.014;11.590;2023-08-06T23:04:08;0.62;;;0.58;;
14890;SDS011;7537;48.014;11.590;2023-08-06T23:09:36;0.87;;;0.95;;
14890;SDS011;7537;48.014;11.590;2023-08-06T23:15:04;1.04;;;1.03;;
14890;SDS011;7537;48.014;11.590;2023-08-06T23:20:32;0.65;;;0.62;;
14890;SDS011;7537;48.014;11.590;2023-08-06T23:25:59;1.33;;;0.89;;
14890;SDS011;7537;48.014;11.590;2023-08-06T23:31:33;1.47;;;1.26;;
14890;SDS011;7537;48.014;11.590;2023-08-06T23:37:01;4.03;;;1.11;;
14890;SDS011;7537;48.014;11.590;2023-08-06T23:42:28;1.50;;;1.28;;
14890;SDS011;7537;48.014;11.590;2023-08-06T23:47:56;0.62;;;0.71;;
14890;SDS011;7537;48.014;11.590;2023-08-06T23:53:23;0.88;;;0.98;;
14890;SDS011;7537;48.014;11.590;2023-08-06T23:58:51;0.91;;;0.75;;
